Time;durP1;ratioP1;P1;durP2;ratioP2;P2;SDS_P1;SDS_P2;PMS_P1;PMS_P2;Temp;Humidity;BMP_temperature;BMP_pressure;BME280_temperature;BME280_humidity;BME280_pressure;Samples;Min_cycle;Max_cycle;Signal;HPM_P1;HPM_P2
2023/03/20 00:00:40;;;;;;;10.13;6.70;;;14.10;78.20;;;;;;4903598;29;20036;-82
2023/03/20 00:03:06;;;;;;;9.82;6.50;;;14.00;78.20;;;;;;4903111;29;20043;-82
2023/03/20 00:05:32;;;;;;;8.98;5.93;;;14.00;78.30;;;;;;4918366;29;20032;-83
2023/03/20 00:07:58;;;;;;;8.68;6.15;;;14.00;78.30;;;;;;4918691;29;20474;-83
2023/03/20 00:10:30;;;;;;;8.93;5.85;;;14.00;78.40;;;;;;4903144;29;20028;-83
2023/03/20 00:12:56;;;;;;;8.60;5.75;;;14.00;78.30;;;;;;4902864;29;20465;-81
2023/03/20 00:15:28;;;;;;;9.38;6.47;;;13.90;78.30;;;;;;4903517;29;20092;-82
2023/03/20 00:17:55;;;;;;;8.27;5.68;;;14.00;78.40;;;;;;4904573;29;20099;-83
2023/03/20 00:20:21;;;;;;;8.13;5.95;;;13.90;78.30;;;;;;4919440;29;20491;-85
2023/03/20 00:22:47;;;;;;;8.60;5.63;;;13.90;78.40;;;;;;4888188;29;20036;-84
2023/03/20 00:25:15;;;;;;;8.30;5.50;;;13.90;78.40;;;;;;4934430;29;20047;-82
2023/03/20 00:27:42;;;;;;;8.52;6.32;;;13.90;78.50;;;;;;4933951;29;20036;-86
2023/03/20 00:30:29;;;;;;;8.23;5.53;;;13.80;78.40;;;;;;4886981;29;20052;-83
2023/03/20 00:32:57;;;;;;;8.02;5.28;;;13.80;78.50;;;;;;4887460;29;20422;-83
2023/03/20 00:35:32;;;;;;;9.18;5.72;;;13.80;78.40;;;;;;4919529;29;20047;-83
2023/03/20 00:37:57;;;;;;;7.97;5.57;;;13.80;78.50;;;;;;4918952;29;20036;-82
2023/03/20 00:40:29;;;;;;;7.53;5.53;;;13.70;78.50;;;;;;4902391;29;20044;-83
2023/03/20 00:42:59;;;;;;;9.10;5.80;;;13.70;78.50;;;;;;4918425;29;20036;-83
2023/03/20 00:45:27;;;;;;;8.05;5.85;;;13.70;78.60;;;;;;4918292;29;20478;-83
2023/03/20 00:47:53;;;;;;;6.90;5.20;;;13.70;78.50;;;;;;4934067;29;20051;-83
2023/03/20 00:50:29;;;;;;;7.40;5.25;;;13.70;78.60;;;;;;4901942;29;20031;-83
2023/03/20 00:52:58;;;;;;;7.10;4.85;;;13.70;78.60;;;;;;4902511;29;20028;-83
2023/03/20 00:55:28;;;;;;;7.93;5.60;;;13.60;78.60;;;;;;4917412;29;20497;-85
2023/03/20 00:57:59;;;;;;;7.75;5.32;;;13.60;78.60;;;;;;4901965;29;20048;-83
2023/03/20 01:00:36;;;;;;;7.03;5.00;;;13.60;78.70;;;;;;4917927;29;20441;-83
2023/03/20 01:03:12;;;;;;;7.78;5.28;;;13.60;78.60;;;;;;4902041;29;20047;-82
2023/03/20 01:05:38;;;;;;;8.75;5.43;;;13.60;78.70;;;;;;4902004;29;20036;-82
2023/03/20 01:08:19;;;;;;;6.65;4.80;;;13.50;78.50;;;;;;4933701;29;20457;-86
2023/03/20 01:10:47;;;;;;;7.80;5.40;;;13.50;78.60;;;;;;4918283;29;20047;-83
2023/03/20 01:13:23;;;;;;;7.63;5.13;;;13.50;78.60;;;;;;4917619;29;20488;-83
2023/03/20 01:15:51;;;;;;;8.18;5.82;;;13.50;78.70;;;;;;4902269;29;20032;-83
2023/03/20 01:18:19;;;;;;;7.03;5.20;;;13.50;78.70;;;;;;4917731;29;20370;-83
2023/03/20 01:20:46;;;;;;;7.57;5.25;;;13.50;78.70;;;;;;4917055;29;20027;-83
2023/03/20 01:23:12;;;;;;;6.47;4.65;;;13.50;78.70;;;;;;4917360;29;20024;-83
2023/03/20 01:25:38;;;;;;;7.60;5.28;;;13.40;78.70;;;;;;4917521;29;20052;-83
2023/03/20 01:28:22;;;;;;;7.32;5.40;;;13.40;78.70;;;;;;4933508;29;20028;-84
2023/03/20 01:30:49;;;;;;;7.40;5.55;;;13.40;78.70;;;;;;4901773;29;20044;-82
2023/03/20 01:33:18;;;;;;;7.20;5.45;;;13.40;78.70;;;;;;4932772;29;20032;-82
2023/03/20 01:35:47;;;;;;;6.97;5.28;;;13.40;78.80;;;;;;4917497;29;20036;-83
2023/03/20 01:38:25;;;;;;;7.22;5.38;;;13.30;79.40;;;;;;4886053;29;20035;-81
2023/03/20 01:40:58;;;;;;;7.75;5.78;;;13.40;78.80;;;;;;4901879;29;20118;-83
2023/03/20 01:43:27;;;;;;;7.70;6.18;;;13.30;78.70;;;;;;4901538;29;20119;-83
2023/03/20 01:46:16;;;;;;;7.68;6.13;;;13.30;78.70;;;;;;4901434;29;20363;-83
2023/03/20 01:48:52;;;;;;;8.77;6.25;;;13.30;78.70;;;;;;4917861;29;20050;-82
2023/03/20 01:51:21;;;;;;;7.95;5.75;;;13.30;78.70;;;;;;4917760;29;20028;-83
2023/03/20 01:54:03;;;;;;;7.55;5.93;;;13.30;78.80;;;;;;4917108;29;20055;-84
2023/03/20 01:56:37;;;;;;;7.72;5.72;;;13.30;78.80;;;;;;4933353;29;20029;-83
2023/03/20 01:59:14;;;;;;;7.85;5.93;;;13.30;78.80;;;;;;4900998;29;20469;-82
2023/03/20 02:01:41;;;;;;;7.63;5.80;;;13.20;78.70;;;;;;4885406;29;20426;-82
2023/03/20 02:04:08;;;;;;;8.52;6.03;;;13.20;78.70;;;;;;4916592;29;20046;-83
2023/03/20 02:06:44;;;;;;;7.43;5.85;;;13.20;78.70;;;;;;4886965;29;20028;-83
2023/03/20 02:09:16;;;;;;;8.43;5.88;;;13.20;78.70;;;;;;4901600;29;20055;-84
2023/03/20 02:11:45;;;;;;;8.52;5.82;;;13.20;78.70;;;;;;4901144;29;20041;-81
2023/03/20 02:14:12;;;;;;;8.40;6.18;;;13.20;78.80;;;;;;4916708;29;20028;-82
2023/03/20 02:16:47;;;;;;;8.38;5.85;;;13.20;78.70;;;;;;4901384;29;20058;-84
2023/03/20 02:20:00;;;;;;;7.80;5.70;;;13.20;78.80;;;;;;4901650;29;20036;-83
2023/03/20 02:22:44;;;;;;;7.57;4.90;;;13.10;78.80;;;;;;4916460;29;20047;-82
2023/03/20 02:25:36;;;;;;;6.72;5.07;;;13.10;78.70;;;;;;4916504;29;20040;-83
2023/03/20 02:28:29;;;;;;;6.95;5.38;;;13.10;78.80;;;;;;4932213;29;20040;-82
2023/03/20 02:31:23;;;;;;;6.80;4.97;;;13.10;78.90;;;;;;4916813;29;20465;-84
2023/03/20 02:34:06;;;;;;;6.03;4.53;;;13.10;78.90;;;;;;4916624;29;20036;-84
2023/03/20 02:36:50;;;;;;;8.10;5.35;;;13.00;78.80;;;;;;4900876;29;20377;-82
2023/03/20 02:39:34;;;;;;;8.23;5.20;;;13.00;78.80;;;;;;4917963;29;20028;-84
2023/03/20 02:42:13;;;;;;;7.15;4.60;;;13.00;78.80;;;;;;4916445;29;20036;-82
2023/03/20 02:45:13;;;;;;;5.78;4.60;;;13.00;78.90;;;;;;4900408;29;20032;-83
2023/03/20 02:47:54;;;;;;;6.80;5.10;;;13.00;79.00;;;;;;4901826;29;20119;-83
2023/03/20 02:50:34;;;;;;;6.25;4.57;;;13.00;79.00;;;;;;4918303;29;20091;-84
2023/03/20 02:53:14;;;;;;;6.80;4.43;;;12.90;79.00;;;;;;4917916;29;20033;-82
2023/03/20 02:56:06;;;;;;;7.07;4.28;;;12.90;78.90;;;;;;4916459;29;20036;-83
2023/03/20 02:58:46;;;;;;;5.63;3.85;;;12.90;78.90;;;;;;4916112;29;20040;-83
2023/03/20 03:01:36;;;;;;;7.32;4.90;;;12.90;78.90;;;;;;4932312;29;20035;-83
2023/03/20 03:04:11;;;;;;;5.75;4.00;;;12.90;78.90;;;;;;4900608;29;20095;-83
2023/03/20 03:06:41;;;;;;;6.50;4.30;;;12.90;78.90;;;;;;4884927;29;20116;-82
2023/03/20 03:09:29;;;;;;;6.22;4.15;;;12.90;78.90;;;;;;4900541;29;20032;-82
2023/03/20 03:11:59;;;;;;;;;;;12.90;79.00;;;;;;4886680;29;20115;-82
2023/03/20 03:14:35;;;;;;;5.03;3.38;;;12.80;78.80;;;;;;4935642;29;19922;-83
2023/03/20 03:17:04;;;;;;;5.85;3.38;;;12.80;78.80;;;;;;4904036;29;20028;-82
2023/03/20 03:19:32;;;;;;;5.75;3.60;;;12.80;78.90;;;;;;4903692;29;20055;-83
2023/03/20 03:22:00;;;;;;;5.38;3.88;;;12.80;78.90;;;;;;4904118;29;20069;-83
2023/03/20 03:24:32;;;;;;;4.70;3.30;;;12.80;78.90;;;;;;4904424;29;20521;-82
2023/03/20 03:27:02;;;;;;;5.40;3.45;;;12.80;78.90;;;;;;4904282;29;20481;-82
2023/03/20 03:29:33;;;;;;;5.18;3.70;;;12.80;78.90;;;;;;4919378;29;20032;-82
2023/03/20 03:32:01;;;;;;;5.35;3.47;;;12.80;78.90;;;;;;4902854;29;20119;-82
2023/03/20 03:34:27;;;;;;;5.47;3.53;;;12.70;78.90;;;;;;4919708;29;20044;-83
2023/03/20 03:37:26;;;;;;;5.80;3.33;;;12.80;78.90;;;;;;4903554;29;20095;-83
2023/03/20 03:39:58;;;;;;;6.82;4.05;;;12.70;79.00;;;;;;4900430;29;20040;-83
2023/03/20 03:42:38;;;;;;;5.32;3.17;;;12.70;78.90;;;;;;4903536;29;20478;-83
2023/03/20 03:45:16;;;;;;;5.85;3.38;;;12.70;79.00;;;;;;4903635;29;20027;-83
2023/03/20 03:47:52;;;;;;;4.57;3.30;;;12.70;78.90;;;;;;4935096;29;20055;-83
2023/03/20 03:50:27;;;;;;;5.15;3.20;;;12.70;78.90;;;;;;4919233;29;20028;-82
2023/03/20 03:53:00;;;;;;;5.50;3.58;;;12.60;78.90;;;;;;4918663;29;20035;-85
2023/03/20 03:55:33;;;;;;;6.03;3.28;;;12.60;78.90;;;;;;4903333;29;20075;-83
2023/03/20 03:58:35;;;;;;;5.55;3.35;;;12.60;79.00;;;;;;4934997;29;20099;-82
2023/03/20 04:01:03;;;;;;;5.55;3.42;;;12.60;79.10;;;;;;4902651;29;20090;-83
2023/03/20 04:03:36;;;;;;;4.78;3.22;;;12.60;79.00;;;;;;4902808;29;20024;-83
2023/03/20 04:06:05;;;;;;;5.40;3.38;;;12.60;79.00;;;;;;4903095;29;20513;-82
2023/03/20 04:08:32;;;;;;;4.88;3.33;;;12.60;78.90;;;;;;4934455;29;20028;-83
2023/03/20 04:10:58;;;;;;;6.32;3.80;;;12.50;78.90;;;;;;4903045;29;20133;-82
2023/03/20 04:13:24;;;;;;;5.10;3.78;;;12.50;78.90;;;;;;4919021;29;20060;-82
2023/03/20 04:15:51;;;;;;;5.97;4.00;;;12.50;79.00;;;;;;4903127;29;20402;-82
2023/03/20 04:18:18;;;;;;;4.82;3.40;;;12.50;78.90;;;;;;4902805;29;20021;-85
2023/03/20 04:20:46;;;;;;;7.03;3.72;;;12.50;78.90;;;;;;4888138;29;20090;-83
2023/03/20 04:23:13;;;;;;;6.25;3.58;;;12.50;78.90;;;;;;4901431;29;20025;-83
2023/03/20 04:25:39;;;;;;;6.13;4.25;;;12.50;79.00;;;;;;4918726;29;20040;-83
2023/03/20 04:28:05;;;;;;;6.05;3.88;;;12.50;79.00;;;;;;4902647;29;20028;-83
2023/03/20 04:30:56;;;;;;;5.32;3.47;;;12.50;78.90;;;;;;4910558;29;20039;-83
2023/03/20 04:33:41;;;;;;;5.28;3.70;;;12.50;79.00;;;;;;4919205;29;20188;-84
2023/03/20 04:36:27;;;;;;;6.15;4.07;;;12.50;78.90;;;;;;4889646;29;20036;-82
2023/03/20 04:38:54;;;;;;;6.72;4.43;;;12.40;78.80;;;;;;4902273;29;20032;-83
2023/03/20 04:41:20;;;;;;;6.10;4.45;;;12.40;78.80;;;;;;4902005;29;20028;-82
2023/03/20 04:43:49;;;;;;;6.93;4.80;;;12.40;78.90;;;;;;4902333;29;20091;-83
2023/03/20 04:46:14;;;;;;;7.40;4.80;;;12.40;78.90;;;;;;4917860;29;20036;-83
2023/03/20 04:48:40;;;;;;;7.15;4.97;;;12.30;78.90;;;;;;4903024;29;20118;-82
2023/03/20 04:51:07;;;;;;;7.85;5.20;;;12.30;78.90;;;;;;4917842;29;20036;-83
2023/03/20 04:53:59;;;;;;;7.90;5.45;;;12.30;78.90;;;;;;4928627;29;20052;-83
2023/03/20 04:56:25;;;;;;;7.03;4.80;;;12.30;78.90;;;;;;4886752;29;20036;-82
2023/03/20 04:58:53;;;;;;;8.02;5.00;;;12.30;79.00;;;;;;4901621;29;20052;-83
2023/03/20 05:01:22;;;;;;;8.05;5.15;;;12.30;78.90;;;;;;4902617;29;20080;-83
2023/03/20 05:03:48;;;;;;;7.95;5.57;;;12.30;79.00;;;;;;4901870;29;20397;-83
2023/03/20 05:06:14;;;;;;;8.32;6.00;;;12.20;78.90;;;;;;4902161;29;20028;-83
2023/03/20 05:08:42;;;;;;;7.93;5.78;;;12.20;78.90;;;;;;4917358;29;20127;-82
2023/03/20 05:11:08;;;;;;;8.13;5.57;;;12.20;79.00;;;;;;4917395;29;20066;-82
2023/03/20 05:14:12;;;;;;;8.98;5.47;;;12.20;79.00;;;;;;4897903;29;20108;-83
2023/03/20 05:17:10;;;;;;;8.02;5.90;;;12.10;78.90;;;;;;4854494;29;20416;-83
2023/03/20 05:19:51;;;;;;;8.18;5.55;;;12.10;78.90;;;;;;4888887;29;20040;-84
2023/03/20 05:22:37;;;;;;;7.20;5.40;;;12.10;78.90;;;;;;4918926;29;20036;-85
2023/03/20 05:25:09;;;;;;;8.10;4.88;;;12.10;79.60;;;;;;4917325;29;20055;-82
2023/03/20 05:28:02;;;;;;;7.35;5.20;;;12.10;79.00;;;;;;4901809;29;20040;-84
2023/03/20 05:30:48;;;;;;;7.78;5.28;;;12.10;79.00;;;;;;4904540;29;20481;-83
2023/03/20 05:33:37;;;;;;;7.22;5.35;;;12.10;79.00;;;;;;4914656;29;20032;-83
2023/03/20 05:36:13;;;;;;;8.88;6.40;;;12.00;78.90;;;;;;4901382;29;20032;-83
2023/03/20 05:39:11;;;;;;;7.70;5.40;;;12.00;79.00;;;;;;4905302;29;20036;-82
2023/03/20 05:41:45;;;;;;;7.18;5.30;;;12.00;79.00;;;;;;4901064;29;20044;-82
2023/03/20 05:44:43;;;;;;;7.63;5.80;;;12.00;79.00;;;;;;4904477;29;20036;-84
2023/03/20 05:47:15;;;;;;;7.47;5.20;;;11.90;78.90;;;;;;4917270;29;20449;-84
2023/03/20 05:49:56;;;;;;;8.80;5.63;;;11.90;79.00;;;;;;4915061;29;20382;-86
2023/03/20 05:52:48;;;;;;;7.78;5.47;;;11.90;78.90;;;;;;4889726;29;20036;-85
2023/03/20 05:55:24;;;;;;;9.80;5.68;;;11.90;78.90;;;;;;4902605;29;20047;-86
2023/03/20 05:58:22;;;;;;;6.95;4.88;;;11.90;78.90;;;;;;4896801;29;20483;-85
2023/03/20 06:00:56;;;;;;;6.50;4.72;;;11.90;79.00;;;;;;4918012;29;20051;-85
2023/03/20 06:03:41;;;;;;;8.27;5.05;;;11.90;79.00;;;;;;4919363;29;20465;-85
2023/03/20 06:06:14;;;;;;;7.72;5.47;;;11.90;78.90;;;;;;4902197;29;20043;-85
2023/03/20 06:08:41;;;;;;;7.75;5.72;;;11.80;78.80;;;;;;4933095;29;20114;-85
2023/03/20 06:11:07;;;;;;;7.97;5.55;;;11.80;78.80;;;;;;4901953;29;20400;-85
2023/03/20 06:13:35;;;;;;;9.48;5.82;;;11.80;78.90;;;;;;4901209;29;20119;-85
2023/03/20 06:16:02;;;;;;;8.15;5.13;;;11.80;78.90;;;;;;4917376;29;20092;-84
2023/03/20 06:18:28;;;;;;;8.02;5.82;;;11.80;78.80;;;;;;4901078;29;20036;-84
2023/03/20 06:20:56;;;;;;;7.10;4.85;;;11.70;78.80;;;;;;4916466;29;20028;-84
2023/03/20 06:23:24;;;;;;;7.57;5.47;;;11.80;78.80;;;;;;4900785;29;20028;-81
2023/03/20 06:25:50;;;;;;;8.15;5.43;;;11.80;78.90;;;;;;4900317;29;20035;-82
2023/03/20 06:28:18;;;;;;;8.57;5.45;;;11.80;78.90;;;;;;4916307;29;20041;-83
2023/03/20 06:30:44;;;;;;;7.88;5.25;;;11.80;78.90;;;;;;4900465;29;20028;-85
2023/03/20 06:33:15;;;;;;;7.35;5.20;;;11.70;78.90;;;;;;4915870;29;20044;-83
2023/03/20 06:35:56;;;;;;;6.68;4.60;;;11.70;78.90;;;;;;4900707;29;20044;-86
2023/03/20 06:38:24;;;;;;;6.72;4.75;;;11.70;78.90;;;;;;4900320;29;20367;-83
2023/03/20 06:40:50;;;;;;;6.88;4.82;;;11.70;78.90;;;;;;4899969;29;20033;-82
2023/03/20 06:43:18;;;;;;;7.32;4.80;;;11.70;79.50;;;;;;4900174;29;20028;-83
2023/03/20 06:45:49;;;;;;;7.10;4.60;;;11.70;78.90;;;;;;4900677;29;20032;-84
2023/03/20 06:48:35;;;;;;;7.35;4.93;;;11.70;78.90;;;;;;4919919;29;20036;-82
2023/03/20 06:51:05;;;;;;;6.45;4.70;;;11.70;78.90;;;;;;4874232;29;20079;-82
2023/03/20 06:53:38;;;;;;;7.25;4.57;;;11.70;78.90;;;;;;4919244;29;20075;-82
2023/03/20 06:56:07;;;;;;;6.28;4.65;;;11.70;78.90;;;;;;4904657;29;20482;-83
2023/03/20 06:58:33;;;;;;;7.05;5.03;;;11.60;78.90;;;;;;4904435;29;20064;-84
2023/03/20 07:00:59;;;;;;;7.38;4.85;;;11.70;78.90;;;;;;4905319;29;20115;-83
2023/03/20 07:03:25;;;;;;;7.10;4.68;;;11.70;79.00;;;;;;4904767;29;20462;-83
2023/03/20 07:05:52;;;;;;;6.97;4.90;;;11.70;79.00;;;;;;4888733;29;20032;-83
2023/03/20 07:08:19;;;;;;;6.85;4.82;;;11.70;79.00;;;;;;4904754;29;20057;-83
2023/03/20 07:10:45;;;;;;;7.85;5.18;;;11.70;78.90;;;;;;4904668;29;20063;-85
2023/03/20 07:13:13;;;;;;;7.38;5.13;;;11.70;78.90;;;;;;4919565;29;20374;-83
2023/03/20 07:15:39;;;;;;;7.03;4.95;;;11.70;79.00;;;;;;4920256;29;20157;-84
2023/03/20 07:18:07;;;;;;;6.65;4.53;;;11.60;78.90;;;;;;4904151;29;20048;-83
2023/03/20 07:20:33;;;;;;;7.15;4.75;;;11.70;79.00;;;;;;4903761;29;20028;-82
2023/03/20 07:22:59;;;;;;;6.93;4.90;;;11.70;79.00;;;;;;4903895;29;20055;-82
2023/03/20 07:25:27;;;;;;;7.80;4.93;;;11.70;79.00;;;;;;4903606;29;20469;-82
2023/03/20 07:27:54;;;;;;;6.57;4.60;;;11.70;79.00;;;;;;4903666;29;20047;-82
2023/03/20 07:30:22;;;;;;;6.65;4.20;;;11.60;78.90;;;;;;4903314;29;20087;-83
2023/03/20 07:32:49;;;;;;;7.07;5.15;;;11.70;79.00;;;;;;4903536;29;20032;-84
2023/03/20 07:35:15;;;;;;;7.00;4.70;;;11.70;79.00;;;;;;4919307;29;20054;-83
2023/03/20 07:37:42;;;;;;;6.93;5.05;;;11.70;79.00;;;;;;4903765;29;20473;-82
2023/03/20 07:40:10;;;;;;;7.57;5.40;;;11.70;79.00;;;;;;4903700;29;20040;-82
2023/03/20 07:43:05;;;;;;;7.65;4.82;;;11.70;79.00;;;;;;4917224;29;20028;-83
2023/03/20 07:45:54;;;;;;;6.40;4.15;;;11.70;78.90;;;;;;4892972;29;20032;-83
2023/03/20 07:48:20;;;;;;;7.18;5.20;;;11.70;78.80;;;;;;4918981;29;20038;-83
2023/03/20 07:50:46;;;;;;;7.05;4.63;;;11.70;78.90;;;;;;4935081;29;20036;-83
2023/03/20 07:53:12;;;;;;;7.22;5.10;;;11.70;78.90;;;;;;4907509;29;20036;-82
2023/03/20 07:55:38;;;;;;;6.63;4.35;;;11.70;78.90;;;;;;4907043;29;20040;-84
2023/03/20 07:58:03;;;;;;;6.20;4.22;;;11.70;78.90;;;;;;4906647;29;20040;-84
2023/03/20 08:00:30;;;;;;;6.55;4.65;;;11.70;79.00;;;;;;4889119;29;20454;-84
2023/03/20 08:02:56;;;;;;;6.45;4.72;;;11.70;78.90;;;;;;4904167;29;20481;-84
2023/03/20 08:05:22;;;;;;;6.95;5.28;;;11.70;78.90;;;;;;4935890;29;20036;-84
2023/03/20 08:07:48;;;;;;;7.13;5.15;;;11.70;78.90;;;;;;4904257;29;20043;-85
2023/03/20 08:10:14;;;;;;;7.25;5.40;;;11.70;78.90;;;;;;4936098;29;20040;-85
2023/03/20 08:12:40;;;;;;;8.32;5.20;;;11.70;79.00;;;;;;4903398;29;20028;-84
2023/03/20 08:15:06;;;;;;;6.88;4.95;;;11.70;78.90;;;;;;4903305;29;20580;-84
2023/03/20 08:17:32;;;;;;;6.88;4.82;;;11.70;78.90;;;;;;4919658;29;20036;-85
2023/03/20 08:19:58;;;;;;;6.32;4.25;;;11.70;78.90;;;;;;4903239;29;20043;-85
2023/03/20 08:22:24;;;;;;;6.18;4.40;;;11.70;79.00;;;;;;4903097;29;20139;-84
2023/03/20 08:24:50;;;;;;;6.80;4.57;;;11.70;78.90;;;;;;4903142;29;20481;-85
2023/03/20 08:27:16;;;;;;;6.25;4.32;;;11.80;79.00;;;;;;4934500;29;20063;-86
2023/03/20 08:29:41;;;;;;;7.25;4.70;;;11.70;78.90;;;;;;4887350;29;20504;-85
2023/03/20 08:32:07;;;;;;;7.38;4.90;;;11.70;78.90;;;;;;4903030;29;20040;-85
2023/03/20 08:34:33;;;;;;;5.88;4.20;;;11.80;79.00;;;;;;4934629;29;20048;-84
2023/03/20 08:36:59;;;;;;;6.75;4.70;;;11.70;78.90;;;;;;4935183;29;20024;-85
2023/03/20 08:39:25;;;;;;;6.25;4.22;;;11.80;79.00;;;;;;4918731;29;20357;-84
2023/03/20 08:41:50;;;;;;;6.20;4.07;;;11.80;79.00;;;;;;4903685;29;20028;-84
2023/03/20 08:44:16;;;;;;;7.38;4.45;;;11.80;79.00;;;;;;4903700;29;20369;-85
2023/03/20 08:46:43;;;;;;;6.70;4.32;;;11.70;78.90;;;;;;4903112;29;20034;-85
2023/03/20 08:49:09;;;;;;;6.88;4.70;;;11.80;79.00;;;;;;4918350;29;20036;-83
2023/03/20 08:51:35;;;;;;;6.82;4.50;;;11.80;79.00;;;;;;4902271;29;20035;-85
2023/03/20 08:54:01;;;;;;;5.80;4.00;;;11.80;79.00;;;;;;4918125;29;20082;-84
2023/03/20 08:56:26;;;;;;;6.40;4.20;;;11.80;78.90;;;;;;4918214;29;20032;-83
2023/03/20 08:58:54;;;;;;;6.10;4.30;;;11.80;78.90;;;;;;4917692;29;20052;-84
2023/03/20 09:01:20;;;;;;;7.15;4.30;;;11.80;78.90;;;;;;4902630;29;20040;-82
2023/03/20 09:03:46;;;;;;;5.53;4.03;;;11.80;78.90;;;;;;4902098;29;20036;-85
2023/03/20 09:06:12;;;;;;;6.55;4.28;;;11.80;78.80;;;;;;4902084;29;20028;-84
2023/03/20 09:08:38;;;;;;;6.30;4.07;;;11.80;78.80;;;;;;4902137;29;20032;-85
2023/03/20 09:11:05;;;;;;;5.68;4.13;;;11.90;78.90;;;;;;4901715;29;20487;-84
2023/03/20 09:13:30;;;;;;;7.80;4.47;;;11.90;78.90;;;;;;4901884;29;20032;-85
2023/03/20 09:15:57;;;;;;;5.93;4.05;;;11.90;78.80;;;;;;4917639;29;20084;-84
2023/03/20 09:18:23;;;;;;;6.90;4.20;;;11.90;78.80;;;;;;4886135;29;20079;-85
2023/03/20 09:20:49;;;;;;;5.68;3.97;;;11.90;78.80;;;;;;4886988;29;20112;-85
2023/03/20 09:23:17;;;;;;;6.35;3.75;;;11.90;78.80;;;;;;4917479;29;20070;-85
2023/03/20 09:25:42;;;;;;;5.82;3.90;;;11.90;78.80;;;;;;4917705;29;20123;-84
2023/03/20 09:28:09;;;;;;;6.05;3.85;;;11.90;78.70;;;;;;4917319;29;20126;-84
2023/03/20 09:30:35;;;;;;;6.05;3.70;;;11.90;78.70;;;;;;4886379;29;20078;-84
2023/03/20 09:33:01;;;;;;;5.25;3.45;;;11.90;78.70;;;;;;4871420;29;20046;-83
2023/03/20 09:35:27;;;;;;;5.60;3.90;;;11.90;78.60;;;;;;4918118;29;20044;-85
2023/03/20 09:37:53;;;;;;;5.55;3.90;;;12.00;78.70;;;;;;4933310;29;20028;-84
2023/03/20 09:40:23;;;;;;;5.70;3.75;;;12.00;78.70;;;;;;4901424;29;20032;-85
2023/03/20 09:43:37;;;;;;;5.60;3.67;;;12.00;78.60;;;;;;4917138;29;20395;-84
2023/03/20 09:46:15;;;;;;;5.53;3.35;;;12.00;78.70;;;;;;4898534;29;20103;-84
2023/03/20 09:49:31;;;;;;;5.40;3.60;;;12.00;78.50;;;;;;4933296;29;20040;-85
2023/03/20 09:52:02;;;;;;;5.30;3.28;;;12.00;78.50;;;;;;4880796;29;20044;-85
2023/03/20 09:54:35;;;;;;;4.13;2.75;;;12.10;78.40;;;;;;4918025;29;20099;-84
2023/03/20 09:57:02;;;;;;;5.45;3.42;;;12.10;78.40;;;;;;4901753;29;20104;-84
2023/03/20 09:59:33;;;;;;;4.68;3.17;;;12.10;78.40;;;;;;4901604;29;20127;-84
2023/03/20 10:02:05;;;;;;;5.00;3.50;;;12.10;78.40;;;;;;4917412;29;20131;-84
2023/03/20 10:04:32;;;;;;;4.88;3.75;;;12.20;78.40;;;;;;4933040;29;20111;-84
2023/03/20 10:06:58;;;;;;;5.70;3.55;;;12.20;79.00;;;;;;4901689;29;20461;-84
2023/03/20 10:09:26;;;;;;;5.55;3.42;;;12.20;78.30;;;;;;4917712;29;20128;-85
2023/03/20 10:12:46;;;;;;;6.10;3.40;;;12.20;78.30;;;;;;4885801;29;20369;-84
2023/03/20 10:15:12;;;;;;;4.55;3.13;;;12.20;78.30;;;;;;4859542;29;20101;-85
2023/03/20 10:17:50;;;;;;;4.13;3.00;;;12.20;78.20;;;;;;4877654;29;20036;-85
2023/03/20 10:20:19;;;;;;;5.30;3.00;;;12.20;78.20;;;;;;4901217;29;20087;-85
2023/03/20 10:22:50;;;;;;;5.85;3.50;;;12.30;78.20;;;;;;4931977;29;20123;-84
2023/03/20 10:25:36;;;;;;;4.85;3.25;;;12.30;78.20;;;;;;4918309;29;20043;-84
2023/03/20 10:28:12;;;;;;;4.80;3.17;;;12.30;78.20;;;;;;4901138;29;20028;-83
2023/03/20 10:30:57;;;;;;;6.10;3.47;;;12.40;78.20;;;;;;4902740;29;20064;-85
2023/03/20 10:33:35;;;;;;;4.57;3.10;;;12.40;78.20;;;;;;4918793;29;20338;-87
2023/03/20 10:36:09;;;;;;;5.20;3.47;;;12.40;78.20;;;;;;4919908;29;20056;-85
2023/03/20 10:39:05;;;;;;;4.95;3.00;;;12.40;78.10;;;;;;4917888;29;20461;-83
2023/03/20 10:41:41;;;;;;;5.15;3.20;;;12.40;78.10;;;;;;4901505;29;20373;-83
2023/03/20 10:44:26;;;;;;;4.78;2.72;;;12.50;78.10;;;;;;4885434;29;20048;-84
2023/03/20 10:46:55;;;;;;;5.55;3.33;;;12.50;78.70;;;;;;4900832;29;20028;-84
2023/03/20 10:49:28;;;;;;;4.32;2.97;;;12.50;78.00;;;;;;4932471;29;20095;-84
2023/03/20 10:52:00;;;;;;;5.45;3.25;;;12.50;78.00;;;;;;4917446;29;20080;-84
2023/03/20 10:54:34;;;;;;;4.97;3.03;;;12.50;78.00;;;;;;4916997;29;20048;-84
2023/03/20 10:57:02;;;;;;;5.07;3.22;;;12.60;78.00;;;;;;4916494;29;20478;-83
2023/03/20 10:59:48;;;;;;;6.03;3.22;;;12.60;77.90;;;;;;4900355;29;20131;-83
2023/03/20 11:02:15;;;;;;;4.05;3.00;;;12.60;78.00;;;;;;4900482;29;20040;-84
2023/03/20 11:04:42;;;;;;;5.95;3.28;;;12.60;77.90;;;;;;4915854;29;20045;-84
2023/03/20 11:07:32;;;;;;;4.95;3.00;;;12.70;77.90;;;;;;4916473;29;20059;-83
2023/03/20 11:10:03;;;;;;;5.82;3.38;;;12.70;78.00;;;;;;4900703;29;20481;-83
2023/03/20 11:12:35;;;;;;;4.45;3.13;;;12.70;77.90;;;;;;4931685;29;20036;-82
2023/03/20 11:15:25;;;;;;;4.38;3.15;;;12.80;77.90;;;;;;4931267;29;20044;-83
2023/03/20 11:18:03;;;;;;;5.15;2.90;;;12.80;77.90;;;;;;4932090;29;20042;-84
2023/03/20 11:20:38;;;;;;;5.07;3.22;;;12.80;77.80;;;;;;4917046;29;20024;-85
2023/03/20 11:23:07;;;;;;;4.43;2.85;;;12.80;77.80;;;;;;4916710;29;20469;-84
2023/03/20 11:25:37;;;;;;;5.43;2.97;;;12.90;77.80;;;;;;4885390;29;20039;-85
2023/03/20 11:28:30;;;;;;;4.20;2.80;;;12.90;77.80;;;;;;4885392;29;20111;-85
2023/03/20 11:31:04;;;;;;;4.68;2.53;;;12.90;77.80;;;;;;4900620;29;20028;-85
2023/03/20 11:33:39;;;;;;;4.20;2.83;;;12.90;77.70;;;;;;4934368;29;20032;-85
2023/03/20 11:36:22;;;;;;;3.83;2.70;;;12.90;77.70;;;;;;4904251;29;20513;-85
2023/03/20 11:38:50;;;;;;;3.88;2.45;;;12.90;77.80;;;;;;4904196;29;20083;-84
2023/03/20 11:41:25;;;;;;;3.58;2.40;;;13.00;77.80;;;;;;4903985;29;20051;-84
2023/03/20 11:43:51;;;;;;;3.92;2.55;;;13.00;77.80;;;;;;4903915;29;20032;-86
2023/03/20 11:46:21;;;;;;;3.45;2.53;;;13.00;77.70;;;;;;4903935;29;20043;-85
2023/03/20 11:49:05;;;;;;;3.65;2.47;;;13.10;77.80;;;;;;4903932;29;20036;-84
2023/03/20 11:51:34;;;;;;;3.75;2.40;;;13.10;77.80;;;;;;4904179;29;20055;-85
2023/03/20 11:54:12;;;;;;;3.63;2.47;;;13.10;77.80;;;;;;4935410;29;20036;-85
2023/03/20 11:56:54;;;;;;;4.28;2.58;;;13.10;77.80;;;;;;4920667;29;20030;-84
2023/03/20 11:59:21;;;;;;;4.65;2.78;;;13.10;77.80;;;;;;4935060;29;20083;-85
2023/03/20 12:01:52;;;;;;;4.28;2.78;;;13.10;77.70;;;;;;4919821;29;20050;-84
2023/03/20 12:04:26;;;;;;;4.03;2.42;;;13.20;77.80;;;;;;4920946;29;20042;-85
2023/03/20 12:06:57;;;;;;;3.97;2.58;;;13.20;77.70;;;;;;4903680;29;20035;-85
2023/03/20 12:09:35;;;;;;;4.47;3.00;;;13.20;77.70;;;;;;4935092;29;20096;-85
2023/03/20 12:12:22;;;;;;;3.42;2.45;;;13.20;77.70;;;;;;4919294;29;20515;-84
2023/03/20 12:15:04;;;;;;;4.75;2.72;;;13.20;77.70;;;;;;4935289;29;20044;-84
2023/03/20 12:17:54;;;;;;;3.08;2.30;;;13.30;77.70;;;;;;4887894;29;20047;-86
2023/03/20 12:20:53;;;;;;;3.88;2.63;;;13.30;77.70;;;;;;4934589;29;20080;-83
2023/03/20 12:23:31;;;;;;;3.20;2.50;;;13.30;77.60;;;;;;4903065;29;20135;-86
2023/03/20 12:26:25;;;;;;;4.00;2.30;;;13.30;77.50;;;;;;4920637;29;20068;-84
2023/03/20 12:29:00;;;;;;;3.63;2.60;;;13.30;77.50;;;;;;4918906;29;20358;-85
2023/03/20 12:31:33;;;;;;;3.67;2.60;;;13.40;77.50;;;;;;4902847;29;20032;-85
2023/03/20 12:34:24;;;;;;;3.22;2.30;;;13.40;77.50;;;;;;4934422;29;20036;-83
2023/03/20 12:36:56;;;;;;;4.10;2.45;;;13.40;77.50;;;;;;4934985;29;20477;-84
2023/03/20 12:39:33;;;;;;;4.18;2.35;;;13.50;77.40;;;;;;4917891;29;20055;-84
2023/03/20 12:42:21;;;;;;;4.47;2.78;;;13.50;77.40;;;;;;4887687;29;20035;-86
2023/03/20 12:44:49;;;;;;;3.13;2.22;;;13.50;77.40;;;;;;4934653;29;20040;-86
2023/03/20 12:47:41;;;;;;;3.92;2.55;;;13.50;77.30;;;;;;4934463;29;20043;-87
2023/03/20 12:50:32;;;;;;;5.00;2.97;;;13.50;77.40;;;;;;4934726;29;20035;-86
2023/03/20 12:53:26;;;;;;;5.05;3.10;;;13.50;77.30;;;;;;4902893;29;20032;-86
2023/03/20 12:56:34;;;;;;;4.38;2.65;;;13.60;77.40;;;;;;4919260;29;20067;-86
2023/03/20 12:59:26;;;;;;;4.15;2.72;;;13.60;77.40;;;;;;4934447;29;20119;-86
2023/03/20 13:02:16;;;;;;;3.72;2.58;;;13.60;77.30;;;;;;4940972;29;20045;-86
2023/03/20 13:05:19;;;;;;;3.85;2.45;;;13.60;77.30;;;;;;4890498;29;20086;-86
2023/03/20 13:08:23;;;;;;;4.07;2.63;;;13.60;77.40;;;;;;4923077;29;20039;-87
2023/03/20 13:11:00;;;;;;;2.67;2.20;;;13.60;77.40;;;;;;4861877;29;20038;-86
2023/03/20 13:13:53;;;;;;;4.80;2.83;;;13.60;77.30;;;;;;4913096;29;20493;-86
2023/03/20 13:16:47;;;;;;;3.42;2.47;;;13.60;77.30;;;;;;4918064;29;20036;-87
2023/03/20 13:19:31;;;;;;;5.50;2.58;;;13.60;77.40;;;;;;4898695;29;20051;-86
2023/03/20 13:22:16;;;;;;;3.15;2.38;;;13.70;77.30;;;;;;4935011;29;20028;-87
2023/03/20 13:25:09;;;;;;;2.67;2.23;;;13.70;77.30;;;;;;4918841;29;20040;-85